Time,TemperatureF,DewpointF,PressureIn,WindDirection,WindDirectionDegrees,WindSpeedMPH,WindSpeedGustMPH,Humidity,HourlyPrecipIn,Conditions,Clouds,dailyrainin,SolarRadiationWatts/m^2,SoftwareType,DateUTC
2013-10-26 00:00:00,39.0,28.0,-100.00,SSW,202,7.0,-999.0,65,-99.99,,,-99.99,0.000000,,2013-10-26 04:00:00,
2013-10-26 00:44:00,39.0,28.0,-100.00,SSW,202,7.0,-999.0,65,-99.99,,,-99.99,0.000000,,2013-10-26 04:44:00,
2013-10-26 00:54:00,39.0,28.0,-100.00,SSW,202,7.0,-999.0,65,-99.99,,,-99.99,0.000000,,2013-10-26 04:54:00,
2013-10-26 01:00:00,39.0,29.0,-100.00,SSW,202,6.0,-999.0,65,-99.99,,,-99.99,0.000000,,2013-10-26 05:00:00,
2013-10-26 01:43:00,39.0,29.0,-100.00,SSW,202,6.0,-999.0,65,-99.99,,,-99.99,0.000000,,2013-10-26 05:43:00,
2013-10-26 01:52:00,39.0,29.0,-100.00,SSW,202,6.0,-999.0,65,-99.99,,,-99.99,0.000000,,2013-10-26 05:52:00,
2013-10-26 02:00:00,41.0,28.0,-100.00,SSW,202,10.0,-999.0,60,-99.99,,,-99.99,0.000000,,2013-10-26 06:00:00,
2013-10-26 02:42:00,41.0,28.0,-100.00,SSW,202,10.0,-999.0,60,-99.99,,,-99.99,0.000000,,2013-10-26 06:42:00,
2013-10-26 02:52:00,41.0,28.0,-100.00,SSW,202,10.0,-999.0,60,-99.99,,,-99.99,0.000000,,2013-10-26 06:52:00,
2013-10-26 03:00:00,41.0,29.0,-100.00,SW,225,9.0,-999.0,62,-99.99,,,-99.99,0.000000,,2013-10-26 07:00:00,
2013-10-26 03:42:00,41.0,29.0,-100.00,SW,225,9.0,-999.0,62,-99.99,,,-99.99,0.000000,,2013-10-26 07:42:00,
2013-10-26 03:52:00,41.0,29.0,-100.00,SW,225,9.0,-999.0,62,-99.99,,,-99.99,0.000000,,2013-10-26 07:52:00,
2013-10-26 04:00:00,41.0,29.0,-100.00,SSW,202,9.0,-999.0,62,-99.99,,,-99.99,0.000000,,2013-10-26 08:00:00,
2013-10-26 04:42:00,41.0,29.0,-100.00,SSW,202,9.0,-999.0,62,-99.99,,,-99.99,0.000000,,2013-10-26 08:42:00,
2013-10-26 04:52:00,41.0,29.0,-100.00,SSW,202,9.0,-999.0,62,-99.99,,,-99.99,0.000000,,2013-10-26 08:52:00,
2013-10-26 05:00:00,41.0,28.0,-100.00,SSW,202,9.0,-999.0,60,-99.99,,,-99.99,0.000000,,2013-10-26 09:00:00,
2013-10-26 05:43:00,41.0,28.0,-100.00,SSW,202,9.0,-999.0,60,-99.99,,,-99.99,0.000000,,2013-10-26 09:43:00,
2013-10-26 05:53:00,41.0,28.0,-100.00,SSW,202,9.0,-999.0,60,-99.99,,,-99.99,0.000000,,2013-10-26 09:53:00,
2013-10-26 06:00:00,41.0,28.0,-100.00,SSW,202,10.0,-999.0,59,-99.99,,,-99.99,0.000000,,2013-10-26 10:00:00,
2013-10-26 06:42:00,41.0,28.0,-100.00,SSW,202,10.0,-999.0,59,-99.99,,,-99.99,0.000000,,2013-10-26 10:42:00,
2013-10-26 06:53:00,41.0,28.0,-100.00,SSW,202,10.0,-999.0,59,-99.99,,,-99.99,0.000000,,2013-10-26 10:53:00,
2013-10-26 07:00:00,41.0,28.0,-100.00,SSW,202,9.0,-999.0,59,-99.99,,,-99.99,0.000000,,2013-10-26 11:00:00,
2013-10-26 07:42:00,41.0,28.0,-100.00,SSW,202,9.0,-999.0,59,-99.99,,,-99.99,0.000000,,2013-10-26 11:42:00,
2013-10-26 07:52:00,41.0,28.0,-100.00,SSW,202,9.0,-999.0,59,-99.99,,,-99.99,0.000000,,2013-10-26 11:52:00,
2013-10-26 08:00:00,41.0,28.0,-100.00,SSW,202,9.0,-999.0,58,-99.99,,,-99.99,0.000000,,2013-10-26 12:00:00,
2013-10-26 08:42:00,41.0,28.0,-100.00,SSW,202,9.0,-999.0,58,-99.99,,,-99.99,0.000000,,2013-10-26 12:42:00,
2013-10-26 08:52:00,41.0,28.0,-100.00,SSW,202,9.0,-999.0,58,-99.99,,,-99.99,0.000000,,2013-10-26 12:52:00,
2013-10-26 09:00:00,42.0,29.0,-100.00,SSW,202,10.0,-999.0,59,-99.99,,,-99.99,10.440000,,2013-10-26 13:00:00,
2013-10-26 09:42:00,42.0,29.0,-100.00,SSW,202,10.0,-999.0,59,-99.99,,,-99.99,10.440000,,2013-10-26 13:42:00,
2013-10-26 09:52:00,42.0,29.0,-100.00,SSW,202,10.0,-999.0,59,-99.99,,,-99.99,10.440000,,2013-10-26 13:52:00,
2013-10-26 10:00:00,42.0,30.0,-100.00,SSW,202,9.0,-999.0,62,-99.99,,,-99.99,15.080000,,2013-10-26 14:00:00,
2013-10-26 10:42:00,42.0,30.0,-100.00,SSW,202,9.0,-999.0,62,-99.99,,,-99.99,15.080000,,2013-10-26 14:42:00,
2013-10-26 10:52:00,42.0,30.0,-100.00,SSW,202,9.0,-999.0,62,-99.99,,,-99.99,15.080000,,2013-10-26 14:52:00,
2013-10-26 11:00:00,42.0,32.0,-100.00,SSW,202,8.0,-999.0,66,-99.99,,,-99.99,78.879997,,2013-10-26 15:00:00,
2013-10-26 11:44:00,42.0,32.0,-100.00,SSW,202,8.0,-999.0,66,-99.99,,,-99.99,78.879997,,2013-10-26 15:44:00,
2013-10-26 11:55:00,42.0,32.0,-100.00,SSW,202,8.0,-999.0,66,-99.99,,,-99.99,78.879997,,2013-10-26 15:55:00,
2013-10-26 12:00:00,46.0,34.0,-100.00,SW,225,8.0,-999.0,61,-99.99,,,-99.99,298.119995,,2013-10-26 16:00:00,
2013-10-26 12:44:00,46.0,34.0,-100.00,SW,225,8.0,-999.0,61,-99.99,,,-99.99,298.119995,,2013-10-26 16:44:00,
2013-10-26 12:54:00,46.0,34.0,-100.00,SW,225,8.0,-999.0,61,-99.99,,,-99.99,298.119995,,2013-10-26 16:54:00,
2013-10-26 13:00:00,49.0,35.0,-100.00,SW,225,8.0,-999.0,58,-99.99,,,-99.99,382.799988,,2013-10-26 17:00:00,
2013-10-26 13:43:00,49.0,35.0,-100.00,SW,225,8.0,-999.0,58,-99.99,,,-99.99,382.799988,,2013-10-26 17:43:00,
2013-10-26 13:52:00,49.0,35.0,-100.00,SW,225,8.0,-999.0,58,-99.99,,,-99.99,382.799988,,2013-10-26 17:52:00,
2013-10-26 14:00:00,49.0,36.0,-100.00,WSW,247,6.0,-999.0,59,-99.99,,,-99.99,211.119995,,2013-10-26 18:00:00,
2013-10-26 14:42:00,49.0,36.0,-100.00,WSW,247,6.0,-999.0,59,-99.99,,,-99.99,211.119995,,2013-10-26 18:42:00,
2013-10-26 14:52:00,49.0,36.0,-100.00,WSW,247,6.0,-999.0,59,-99.99,,,-99.99,211.119995,,2013-10-26 18:52:00,
2013-10-26 15:00:00,49.0,37.0,-100.00,WSW,247,6.0,-999.0,63,-99.99,,,-99.99,95.120003,,2013-10-26 19:00:00,
2013-10-26 15:42:00,49.0,37.0,-100.00,WSW,247,6.0,-999.0,63,-99.99,,,-99.99,95.120003,,2013-10-26 19:42:00,
2013-10-26 15:52:00,49.0,37.0,-100.00,WSW,247,6.0,-999.0,63,-99.99,,,-99.99,95.120003,,2013-10-26 19:52:00,
2013-10-26 16:00:00,50.0,39.0,-100.00,West,270,8.0,-999.0,65,-99.99,,,-99.99,160.080002,,2013-10-26 20:00:00,
2013-10-26 16:43:00,50.0,39.0,-100.00,West,270,8.0,-999.0,65,-99.99,,,-99.99,160.080002,,2013-10-26 20:43:00,
2013-10-26 16:52:00,50.0,39.0,-100.00,West,270,8.0,-999.0,65,-99.99,,,-99.99,160.080002,,2013-10-26 20:52:00,
2013-10-26 17:00:00,50.0,38.0,-100.00,WNW,292,9.0,-999.0,64,-99.99,,,-99.99,99.760002,,2013-10-26 21:00:00,
2013-10-26 17:43:00,50.0,38.0,-100.00,WNW,292,9.0,-999.0,64,-99.99,,,-99.99,99.760002,,2013-10-26 21:43:00,
2013-10-26 17:55:00,50.0,38.0,-100.00,WNW,292,9.0,-999.0,64,-99.99,,,-99.99,99.760002,,2013-10-26 21:55:00,
2013-10-26 18:00:00,48.0,36.0,-100.00,WNW,292,8.0,-999.0,63,-99.99,,,-99.99,17.400000,,2013-10-26 22:00:00,
2013-10-26 18:44:00,48.0,36.0,-100.00,WNW,292,8.0,-999.0,63,-99.99,,,-99.99,17.400000,,2013-10-26 22:44:00,
2013-10-26 18:54:00,48.0,36.0,-100.00,WNW,292,8.0,-999.0,63,-99.99,,,-99.99,17.400000,,2013-10-26 22:54:00,
2013-10-26 19:00:00,47.0,35.0,-100.00,WNW,292,6.0,-999.0,63,-99.99,,,-99.99,3.480000,,2013-10-26 23:00:00,
2013-10-26 19:42:00,47.0,35.0,-100.00,WNW,292,6.0,-999.0,63,-99.99,,,-99.99,3.480000,,2013-10-26 23:42:00,
2013-10-26 19:52:00,47.0,35.0,-100.00,WNW,292,6.0,-999.0,63,-99.99,,,-99.99,3.480000,,2013-10-26 23:52:00,
2013-10-26 20:00:00,47.0,35.0,-100.00,West,270,5.0,-999.0,65,-99.99,,,-99.99,0.000000,,2013-10-27 00:00:00,
2013-10-26 20:42:00,47.0,35.0,-100.00,West,270,5.0,-999.0,65,-99.99,,,-99.99,0.000000,,2013-10-27 00:42:00,
2013-10-26 20:52:00,47.0,35.0,-100.00,West,270,5.0,-999.0,65,-99.99,,,-99.99,0.000000,,2013-10-27 00:52:00,
2013-10-26 21:00:00,44.0,34.0,-100.00,West,270,3.0,-999.0,66,-99.99,,,-99.99,0.000000,,2013-10-27 01:00:00,
2013-10-26 21:42:00,44.0,34.0,-100.00,West,270,3.0,-999.0,66,-99.99,,,-99.99,0.000000,,2013-10-27 01:42:00,
2013-10-26 21:52:00,44.0,34.0,-100.00,West,270,3.0,-999.0,66,-99.99,,,-99.99,0.000000,,2013-10-27 01:52:00,
2013-10-26 22:00:00,41.0,33.0,-100.00,West,270,1.0,-999.0,73,-99.99,,,-99.99,0.000000,,2013-10-27 02:00:00,
2013-10-26 22:42:00,41.0,33.0,-100.00,West,270,1.0,-999.0,73,-99.99,,,-99.99,0.000000,,2013-10-27 02:42:00,
2013-10-26 22:52:00,41.0,33.0,-100.00,West,270,1.0,-999.0,73,-99.99,,,-99.99,0.000000,,2013-10-27 02:52:00,
2013-10-26 23:00:00,-999.0,-99.9,-100.00,SW,225,0.0,-999.0,-999,-99.99,,,-99.99,,,2013-10-27 03:00:00,
2013-10-26 23:45:00,41.0,34.0,-100.00,SW,225,0.0,-999.0,76,-99.99,,,-99.99,0.000000,,2013-10-27 03:45:00,
2013-10-26 23:55:00,41.0,34.0,-100.00,SW,225,0.0,-999.0,76,-99.99,,,-99.99,0.000000,,2013-10-27 03:55:00,